Terminal Aerodrome Forecast
Issued by NWS Denver/Boulder, CO

Home | Current Version | Previous Version | Text Only | Print | Product List | Glossary On
Versions: 1 2 3 4 5 6 7 8 9 10 11 12 13 14 15 16 17 18 19 20 21 22 23 24 25 26 27 28 29 30 31 32 33 34 35 36 37 38 39 40 41 42 43 44 45 46 47 48 49 50
000
FTUS45 KBOU 170306 AAA
TAFDEN
TAF AMD
KDEN 170306Z 1703/1806 22007KT P6SM FEW090 SCT150
     FM171600 VRB05KT P6SM SCT080 OVC120
     FM171900 04008KT P6SM VCSH SCT035 BKN060 OVC080 PROB30
      1720/1802 2SM -SN BR BKN020 OVC035
     FM180200 12007KT P6SM SCT030 OVC050 PROB30 1802/1806 4SM -SN BR
      BKN025=

USA.gov is the U.S. government's official web portal to all federal, state and local government web resources and services.